Najafabad, Iran
Current Conditions -  °F | °C
As of 7:30 AM on Monday 22 Dec 2014 (Local Time) from OIFM Reporting Station
Haze Haze  
Wind Chill: 23°   Ceiling: Unl
Heat Index: 23°   Visibility: 1.2mi
Dew Point: 23°   Wind: 0mph
Humidity: 100%   Direction: NA
Pressure: 30.03"   Gusts: NA
Location:  32.67°N, 51.35°E
Report Text: OIFM 220330Z 00000KT 2000 BR SKC M05/M05 Q1017 A3003
Loading
Personal Weather Stations






























Interactive Weather Map New forecast layout! Learn more

10-Day Weather Forecast

Advertisements
Track Severe Weather on mobile